createdAt,value
2022-12-16T00:00:13.341Z,23.35
2022-12-16T00:02:43.073Z,23.23
2022-12-16T00:05:09.995Z,22.52
2022-12-16T00:07:36.901Z,23.88
2022-12-16T00:10:04.023Z,22.10
2022-12-16T00:12:30.893Z,21.85
2022-12-16T00:14:57.694Z,21.73
2022-12-16T00:17:24.727Z,22.42
2022-12-16T00:19:51.587Z,20.55
2022-12-16T00:22:19.259Z,20.80
2022-12-16T00:24:46.252Z,21.65
2022-12-16T00:27:13.069Z,20.92
2022-12-16T00:29:39.927Z,21.30
2022-12-16T00:32:06.952Z,21.25
2022-12-16T00:34:33.856Z,20.90
2022-12-16T00:37:00.798Z,20.63
2022-12-16T00:39:27.673Z,23.95
2022-12-16T00:41:54.510Z,21.63
2022-12-16T00:44:24.334Z,23.20
2022-12-16T00:46:51.134Z,24.48
2022-12-16T00:49:18.603Z,24.30
2022-12-16T00:51:45.489Z,23.45
2022-12-16T00:54:12.294Z,23.95
2022-12-16T00:56:39.138Z,24.42
2022-12-16T00:59:05.909Z,23.55
2022-12-16T01:01:32.848Z,24.83
2022-12-16T01:03:59.769Z,22.13
2022-12-16T01:06:26.618Z,24.40
2022-12-16T01:08:53.456Z,24.17
2022-12-16T01:11:21.969Z,26.33
2022-12-16T01:13:52.557Z,24.13
2022-12-16T01:16:22.558Z,25.17
2022-12-16T01:18:49.426Z,24.30
2022-12-16T01:21:16.319Z,24.13
2022-12-16T01:23:43.526Z,25.23
2022-12-16T01:26:16.569Z,25.27
2022-12-16T01:28:43.614Z,26.30
2022-12-16T01:31:11.381Z,24.50
2022-12-16T01:33:38.647Z,25.52
2022-12-16T01:36:08.032Z,25.40
2022-12-16T01:38:35.562Z,26.23
2022-12-16T01:41:03.393Z,26.70
2022-12-16T01:43:34.555Z,26.08
2022-12-16T01:46:15.886Z,25.85
2022-12-16T01:49:03.243Z,26.83
2022-12-16T01:51:38.373Z,25.40
2022-12-16T01:54:29.329Z,26.48
2022-12-16T01:57:00.522Z,25.55
2022-12-16T01:59:30.116Z,26.10
2022-12-16T02:01:57.791Z,26.20
2022-12-16T02:04:24.940Z,27.73
2022-12-16T02:06:51.913Z,27.30
2022-12-16T02:09:19.241Z,27.33
2022-12-16T02:11:51.740Z,26.83
2022-12-16T02:14:46.845Z,25.42
2022-12-16T02:17:42.331Z,24.67
2022-12-16T02:20:46.701Z,26.20
2022-12-16T02:23:35.403Z,25.17
2022-12-16T02:26:11.326Z,24.02
2022-12-16T02:29:03.786Z,25.45
2022-12-16T02:32:09.749Z,23.33
2022-12-16T02:34:45.310Z,22.10
2022-12-16T02:37:30.336Z,22.92
2022-12-16T02:40:01.932Z,23.27
2022-12-16T02:42:49.825Z,23.65
2022-12-16T02:45:25.350Z,23.25
2022-12-16T02:47:52.246Z,22.60
2022-12-16T02:50:43.711Z,23.05
2022-12-16T02:53:11.185Z,23.85
2022-12-16T02:55:41.005Z,23.20
2022-12-16T02:58:19.457Z,22.77
2022-12-16T03:01:11.893Z,21.83
2022-12-16T03:04:16.302Z,22.88
2022-12-16T03:06:47.648Z,24.17
2022-12-16T03:09:19.406Z,23.77
2022-12-16T03:11:49.363Z,24.38
2022-12-16T03:14:19.465Z,24.98
2022-12-16T03:16:48.622Z,24.30
2022-12-16T03:19:15.382Z,24.83
2022-12-16T03:22:07.707Z,24.75
2022-12-16T03:24:35.177Z,24.88
2022-12-16T03:27:13.809Z,25.80
2022-12-16T03:30:03.871Z,25.35
2022-12-16T03:32:39.247Z,24.98
2022-12-16T03:35:24.452Z,24.88
2022-12-16T03:37:55.417Z,24.63
2022-12-16T03:40:24.097Z,25.85
2022-12-16T03:42:53.832Z,25.70
2022-12-16T03:45:29.203Z,24.15
2022-12-16T03:47:58.426Z,27.25
2022-12-16T03:50:32.131Z,27.30
2022-12-16T03:52:59.243Z,26.52
2022-12-16T03:55:26.225Z,25.75
2022-12-16T03:57:53.058Z,27.40
2022-12-16T04:00:20.813Z,27.75
2022-12-16T04:02:48.012Z,28.33
2022-12-16T04:05:15.201Z,27.17
2022-12-16T04:07:42.250Z,28.48
2022-12-16T04:10:10.005Z,29.55
2022-12-16T04:12:55.351Z,27.73
2022-12-16T04:15:41.009Z,28.45
2022-12-16T04:18:33.400Z,27.48
2022-12-16T04:21:18.719Z,27.40
2022-12-16T04:24:12.670Z,29.52
2022-12-16T04:26:58.294Z,29.52
2022-12-16T04:29:25.113Z,30.40
2022-12-16T04:31:52.927Z,28.38
2022-12-16T04:34:27.340Z,27.75
2022-12-16T04:37:14.626Z,28.65
2022-12-16T04:39:59.790Z,27.75
2022-12-16T04:42:45.848Z,28.38
2022-12-16T04:45:31.500Z,28.05
2022-12-16T04:48:16.735Z,28.23
2022-12-16T04:51:02.657Z,28.52
2022-12-16T04:53:48.284Z,30.25
2022-12-16T04:56:33.512Z,28.42
2022-12-16T04:59:18.730Z,30.02
2022-12-16T05:02:04.180Z,28.75
2022-12-16T05:04:49.496Z,27.80
2022-12-16T05:07:38.392Z,29.23
2022-12-16T05:10:25.222Z,28.52
2022-12-16T05:13:15.131Z,28.80
2022-12-16T05:16:00.395Z,29.80
2022-12-16T05:18:45.722Z,28.67
2022-12-16T05:21:31.068Z,29.55
2022-12-16T05:24:16.500Z,31.30
2022-12-16T05:27:01.797Z,29.15
2022-12-16T05:29:47.011Z,29.38
2022-12-16T05:32:33.650Z,28.60
2022-12-16T05:35:18.952Z,27.85
2022-12-16T05:38:04.905Z,28.85
2022-12-16T05:40:50.066Z,27.88
2022-12-16T05:43:35.497Z,27.40
2022-12-16T05:46:21.133Z,25.73
2022-12-16T05:49:06.349Z,26.30
2022-12-16T05:51:51.866Z,28.73
2022-12-16T05:54:37.287Z,26.65
2022-12-16T05:57:22.787Z,26.80
2022-12-16T06:00:08.268Z,27.75
2022-12-16T06:02:53.953Z,25.00
2022-12-16T06:05:39.303Z,24.15
2022-12-16T06:08:24.749Z,24.73
2022-12-16T06:11:10.246Z,27.27
2022-12-16T06:13:55.588Z,25.60
2022-12-16T06:16:41.022Z,27.27
2022-12-16T06:19:26.291Z,26.73
2022-12-16T06:22:11.848Z,27.45
2022-12-16T06:24:57.084Z,29.27
2022-12-16T06:27:42.818Z,29.90
2022-12-16T06:30:28.984Z,30.63
2022-12-16T06:33:14.236Z,30.70
2022-12-16T06:35:59.652Z,30.90
2022-12-16T06:38:45.157Z,29.98
2022-12-16T06:41:30.817Z,30.15
2022-12-16T06:44:16.382Z,30.98
2022-12-16T06:47:01.862Z,29.38
2022-12-16T06:49:47.043Z,28.45
2022-12-16T06:52:32.624Z,28.20
2022-12-16T06:55:17.884Z,28.83
2022-12-16T06:58:06.786Z,31.27
2022-12-16T07:00:55.123Z,30.20
2022-12-16T07:03:41.385Z,30.52
2022-12-16T07:06:26.913Z,31.30
2022-12-16T07:09:12.353Z,33.45
2022-12-16T07:11:57.790Z,30.60
2022-12-16T07:14:43.225Z,29.98
2022-12-16T07:17:28.919Z,31.48
2022-12-16T07:20:14.375Z,31.08
2022-12-16T07:23:17.752Z,33.78
2022-12-16T07:26:05.309Z,33.10
2022-12-16T07:28:50.876Z,31.40
2022-12-16T07:31:36.176Z,32.35
2022-12-16T07:34:21.567Z,28.77
2022-12-16T07:37:07.128Z,30.65
2022-12-16T07:39:55.189Z,30.75
2022-12-16T07:42:41.996Z,29.50
2022-12-16T07:45:27.860Z,31.17
2022-12-16T07:48:13.829Z,34.58
2022-12-16T07:50:59.545Z,29.92
2022-12-16T07:53:45.176Z,31.60
2022-12-16T07:56:30.514Z,27.50
2022-12-16T07:59:15.676Z,30.95
2022-12-16T08:02:01.239Z,29.92
2022-12-16T08:04:46.556Z,27.77
2022-12-16T08:07:31.831Z,29.73
2022-12-16T08:10:17.269Z,29.55
2022-12-16T08:13:02.658Z,32.45
2022-12-16T08:15:48.348Z,32.72
2022-12-16T08:18:33.882Z,30.08
2022-12-16T08:21:19.224Z,29.50
2022-12-16T08:24:04.329Z,30.98
2022-12-16T08:26:49.646Z,29.70
2022-12-16T08:29:44.393Z,28.95
2022-12-16T08:32:31.384Z,28.35
2022-12-16T08:35:16.854Z,27.10
2022-12-16T08:38:12.292Z,29.95
2022-12-16T08:41:01.383Z,30.80
2022-12-16T08:46:20.902Z,31.60
2022-12-16T08:49:06.502Z,33.30
2022-12-16T08:51:51.794Z,33.42
2022-12-16T08:54:37.301Z,32.28
2022-12-16T08:57:22.645Z,30.50
2022-12-16T09:00:07.946Z,28.38
2022-12-16T09:02:53.355Z,32.80
2022-12-16T09:05:41.264Z,33.33
2022-12-16T09:08:26.905Z,32.00
2022-12-16T09:11:12.392Z,30.98
2022-12-16T09:13:57.702Z,29.88
2022-12-16T09:16:43.206Z,29.80
2022-12-16T09:19:29.348Z,33.58
2022-12-16T09:22:14.787Z,32.55
2022-12-16T09:25:00.258Z,31.27
2022-12-16T09:27:45.769Z,31.77
2022-12-16T09:30:31.411Z,32.65
2022-12-16T09:33:16.932Z,30.42
2022-12-16T09:36:02.245Z,30.83
2022-12-16T09:38:47.402Z,29.92
2022-12-16T09:42:02.581Z,30.23
2022-12-16T09:44:56.943Z,31.55
2022-12-16T09:47:48.399Z,27.77
2022-12-16T09:50:48.845Z,25.50
2022-12-16T09:53:38.586Z,26.63
2022-12-16T09:56:32.962Z,26.92
2022-12-16T09:59:25.029Z,25.50
2022-12-16T10:02:12.408Z,24.67
2022-12-16T10:04:58.096Z,22.80
2022-12-16T10:07:50.082Z,24.23
2022-12-16T10:11:16.936Z,26.95
2022-12-16T10:14:19.211Z,26.92
2022-12-16T10:17:20.035Z,23.95
2022-12-16T10:20:21.339Z,24.65
2022-12-16T10:23:23.581Z,24.15
2022-12-16T10:26:14.729Z,24.45
2022-12-16T10:29:10.315Z,23.23
2022-12-16T10:31:56.277Z,22.23
2022-12-16T10:34:51.412Z,21.50
2022-12-16T10:37:56.986Z,24.63
2022-12-16T10:40:46.772Z,23.38
2022-12-16T10:43:35.843Z,23.77
2022-12-16T10:46:37.339Z,21.20
2022-12-16T10:49:22.861Z,22.08
2022-12-16T10:52:09.245Z,20.88
2022-12-16T10:55:01.746Z,23.63
2022-12-16T10:58:34.282Z,23.48
2022-12-16T11:01:39.645Z,20.08
2022-12-16T11:04:48.333Z,20.70
2022-12-16T11:07:53.519Z,22.75
2022-12-16T11:10:50.182Z,22.70
2022-12-16T11:13:38.392Z,22.52
2022-12-16T11:16:34.663Z,22.05
2022-12-16T11:19:20.460Z,21.98
2022-12-16T11:22:06.445Z,21.77
2022-12-16T11:24:52.877Z,24.08
2022-12-16T11:27:45.165Z,20.92
2022-12-16T11:30:41.031Z,22.35
2022-12-16T11:33:46.773Z,21.70
2022-12-16T11:36:40.139Z,20.45
2022-12-16T11:39:31.836Z,22.85
2022-12-16T11:42:19.348Z,21.87
2022-12-16T11:45:12.486Z,22.80
2022-12-16T11:48:04.353Z,19.75
2022-12-16T11:50:52.595Z,20.20
2022-12-16T11:54:03.336Z,23.27
2022-12-16T11:57:00.076Z,23.00
2022-12-16T11:59:52.669Z,20.75
2022-12-16T12:02:59.172Z,19.98
2022-12-16T12:05:57.142Z,21.05
2022-12-16T12:09:04.461Z,22.95
2022-12-16T12:11:53.631Z,20.45
2022-12-16T12:14:41.083Z,20.17
2022-12-16T12:17:57.144Z,20.98
2022-12-16T12:20:51.152Z,20.33
2022-12-16T12:23:53.634Z,23.15
2022-12-16T12:26:52.188Z,23.83
2022-12-16T12:29:57.329Z,19.92
2022-12-16T12:32:54.584Z,19.88
2022-12-16T12:35:55.699Z,21.02
2022-12-16T12:39:09.148Z,21.33
2022-12-16T12:42:31.301Z,23.58
2022-12-16T12:45:35.493Z,26.00
2022-12-16T12:48:39.141Z,23.25
2022-12-16T12:51:29.650Z,26.00
2022-12-16T12:55:01.794Z,21.63
2022-12-16T12:57:48.747Z,21.75
2022-12-16T13:00:40.616Z,20.67
2022-12-16T13:03:32.520Z,19.02
2022-12-16T13:06:19.405Z,18.27
2022-12-16T13:09:16.276Z,27.05
2022-12-16T13:12:26.602Z,25.48
2022-12-16T13:15:22.875Z,22.98
2022-12-16T13:18:20.382Z,23.00
2022-12-16T13:21:06.783Z,20.42
2022-12-16T13:23:57.648Z,21.00
2022-12-16T13:26:48.692Z,19.77
2022-12-16T13:29:39.966Z,21.33
2022-12-16T13:32:28.396Z,20.45
2022-12-16T13:35:24.551Z,22.33
2022-12-16T13:38:21.094Z,21.50
2022-12-16T13:41:18.638Z,20.58
2022-12-16T13:44:10.268Z,21.63
2022-12-16T13:47:12.045Z,20.87
2022-12-16T13:50:10.752Z,19.38
2022-12-16T13:52:58.862Z,18.25
2022-12-16T13:56:14.491Z,19.23
2022-12-16T13:59:01.583Z,22.52
2022-12-16T14:02:02.559Z,21.02
2022-12-16T14:04:54.582Z,18.48
2022-12-16T14:07:42.852Z,19.13
2022-12-16T14:10:45.205Z,20.33
2022-12-16T14:13:37.682Z,18.52
2022-12-16T14:16:31.726Z,20.35
2022-12-16T14:19:51.953Z,20.42
2022-12-16T14:23:04.502Z,19.45
2022-12-16T14:25:50.052Z,22.13
2022-12-16T14:28:42.186Z,19.70
2022-12-16T14:31:56.314Z,17.55
2022-12-16T14:34:48.171Z,20.23
2022-12-16T14:37:40.983Z,19.17
2022-12-16T14:40:47.929Z,17.42
2022-12-16T14:43:36.825Z,19.15
2022-12-16T14:46:22.586Z,20.90
2022-12-16T14:49:09.743Z,21.45
2022-12-16T14:51:56.698Z,20.20
2022-12-16T14:55:00.593Z,20.55
2022-12-16T14:57:48.493Z,18.27
2022-12-16T15:00:35.598Z,18.83
2022-12-16T15:03:40.071Z,16.95
2022-12-16T15:06:31.747Z,19.25
2022-12-16T15:09:22.529Z,17.85
2022-12-16T15:12:12.947Z,17.33
2022-12-16T15:14:59.519Z,18.23
2022-12-16T15:18:22.307Z,17.60
2022-12-16T15:21:09.149Z,18.67
2022-12-16T15:23:59.324Z,18.42
2022-12-16T15:26:47.936Z,16.13
2022-12-16T15:29:52.882Z,18.20
2022-12-16T15:32:55.905Z,18.80
2022-12-16T15:35:45.586Z,16.55
2022-12-16T15:38:33.937Z,17.08
2022-12-16T15:41:25.009Z,17.20
2022-12-16T15:44:10.904Z,17.40
2022-12-16T15:46:56.398Z,19.67
2022-12-16T15:49:55.888Z,18.70
2022-12-16T15:53:02.330Z,18.42
2022-12-16T15:56:02.581Z,18.83
2022-12-16T15:58:53.366Z,18.70
2022-12-16T16:01:44.409Z,18.90
2022-12-16T16:04:49.151Z,18.10
2022-12-16T16:07:36.794Z,20.15
2022-12-16T16:10:37.898Z,19.52
2022-12-16T16:13:23.529Z,20.08
2022-12-16T16:16:09.477Z,20.90
2022-12-16T16:18:54.851Z,19.20
2022-12-16T16:21:40.767Z,22.45
2022-12-16T16:24:26.321Z,20.10
2022-12-16T16:27:13.508Z,21.77
2022-12-16T16:29:58.742Z,20.38
2022-12-16T16:32:44.107Z,18.38
2022-12-16T16:35:29.605Z,18.20
2022-12-16T16:38:18.440Z,18.40
2022-12-16T16:41:04.489Z,19.98
2022-12-16T16:43:50.219Z,19.38
2022-12-16T16:46:56.085Z,18.80
2022-12-16T16:49:42.803Z,19.08
2022-12-16T16:52:36.454Z,20.88
2022-12-16T16:55:22.946Z,19.85
2022-12-16T16:58:08.559Z,23.95
2022-12-16T17:00:54.082Z,25.50
2022-12-16T17:03:39.934Z,21.70
2022-12-16T17:06:25.876Z,20.48
2022-12-16T17:09:11.329Z,21.80
2022-12-16T17:11:56.980Z,20.35
2022-12-16T17:14:42.550Z,22.50
2022-12-16T17:17:29.200Z,20.00
2022-12-16T17:20:14.609Z,19.00
2022-12-16T17:23:00.052Z,17.80
2022-12-16T17:25:45.625Z,18.23
2022-12-16T17:28:30.997Z,18.13
2022-12-16T17:31:17.277Z,18.17
2022-12-16T17:34:02.504Z,18.25
2022-12-16T17:36:48.102Z,18.17
2022-12-16T17:39:33.505Z,19.15
2022-12-16T17:42:20.635Z,18.05
2022-12-16T17:45:06.080Z,19.83
2022-12-16T17:47:51.224Z,20.13
2022-12-16T17:50:36.817Z,18.52
2022-12-16T17:53:22.412Z,18.38
2022-12-16T17:56:07.722Z,18.58
2022-12-16T17:58:55.276Z,19.95
2022-12-16T18:01:41.542Z,20.02
2022-12-16T18:04:27.830Z,19.92
2022-12-16T18:07:13.739Z,17.50
2022-12-16T18:09:59.318Z,19.73
2022-12-16T18:12:45.268Z,19.63
2022-12-16T18:15:30.862Z,21.83
2022-12-16T18:18:15.970Z,18.70
2022-12-16T18:21:01.309Z,20.63
2022-12-16T18:23:49.941Z,18.77
2022-12-16T18:26:35.955Z,22.00
2022-12-16T18:29:21.377Z,22.45
2022-12-16T18:32:07.684Z,20.65
2022-12-16T18:34:53.163Z,18.55
2022-12-16T18:37:42.972Z,18.25
2022-12-16T18:40:29.025Z,18.55
2022-12-16T18:43:14.169Z,19.10
2022-12-16T18:45:59.525Z,17.98
2022-12-16T18:48:44.795Z,19.35
2022-12-16T18:51:30.415Z,21.50
2022-12-16T18:54:15.913Z,21.40
2022-12-16T18:57:01.444Z,19.40
2022-12-16T18:59:47.024Z,18.90
2022-12-16T19:02:32.597Z,19.67
2022-12-16T19:05:17.956Z,19.85
2022-12-16T19:08:03.562Z,17.05
2022-12-16T19:10:48.765Z,18.38
2022-12-16T19:13:39.252Z,17.42
2022-12-16T19:16:25.092Z,16.52
2022-12-16T19:19:13.889Z,18.48
2022-12-16T19:22:04.450Z,19.02
2022-12-16T19:24:49.779Z,20.00
2022-12-16T19:27:35.169Z,17.77
2022-12-16T19:30:20.774Z,19.38
2022-12-16T19:33:08.972Z,19.13
2022-12-16T19:35:54.969Z,18.75
2022-12-16T19:38:42.489Z,19.77
2022-12-16T19:41:35.558Z,18.88
2022-12-16T19:44:22.261Z,18.15
2022-12-16T19:47:08.036Z,18.45
2022-12-16T19:49:54.898Z,18.63
2022-12-16T19:52:41.859Z,19.33
2022-12-16T19:55:28.110Z,17.17
2022-12-16T19:58:13.903Z,17.83
2022-12-16T20:00:59.914Z,17.27
2022-12-16T20:03:46.101Z,18.98
2022-12-16T20:06:31.897Z,17.35
2022-12-16T20:09:17.205Z,16.70
2022-12-16T20:12:03.206Z,15.75
2022-12-16T20:14:48.810Z,15.68
2022-12-16T20:17:34.254Z,16.30
2022-12-16T20:20:19.970Z,16.70
2022-12-16T20:23:06.139Z,14.75
2022-12-16T20:25:51.881Z,16.08
2022-12-16T20:28:37.256Z,17.85
2022-12-16T20:31:23.183Z,15.18
2022-12-16T20:34:12.931Z,15.02
2022-12-16T20:36:58.287Z,17.17
2022-12-16T20:39:46.753Z,16.23
2022-12-16T20:42:36.725Z,17.25
2022-12-16T20:45:22.056Z,17.40
2022-12-16T20:48:07.599Z,16.52
2022-12-16T20:50:55.989Z,16.73
2022-12-16T20:53:42.438Z,17.00
2022-12-16T20:56:28.076Z,15.73
2022-12-16T20:59:13.343Z,17.00
2022-12-16T21:02:22.161Z,17.73
2022-12-16T21:05:04.329Z,15.77
2022-12-16T21:07:49.728Z,15.95
2022-12-16T21:10:35.189Z,17.20
2022-12-16T21:13:33.009Z,18.92
2022-12-16T21:16:19.678Z,16.30
2022-12-16T21:19:05.884Z,17.30
2022-12-16T21:21:51.354Z,16.95
2022-12-16T21:24:37.399Z,16.90
2022-12-16T21:27:23.414Z,16.40
2022-12-16T21:30:09.196Z,16.13
2022-12-16T21:32:55.165Z,16.02
2022-12-16T21:35:42.060Z,15.93
2022-12-16T21:38:29.619Z,15.80
2022-12-16T21:41:15.379Z,17.35
2022-12-16T21:44:00.882Z,15.18
2022-12-16T21:46:48.080Z,16.45
2022-12-16T21:49:33.834Z,15.60
2022-12-16T21:52:19.104Z,13.80
2022-12-16T21:55:04.354Z,15.43
2022-12-16T21:57:49.687Z,17.13
2022-12-16T22:00:39.533Z,17.38
2022-12-16T22:03:25.124Z,16.92
2022-12-16T22:06:10.527Z,17.58
2022-12-16T22:08:56.246Z,15.80
2022-12-16T22:11:41.714Z,15.45
2022-12-16T22:14:27.167Z,15.05
2022-12-16T22:17:12.632Z,16.30
2022-12-16T22:19:57.982Z,15.93
2022-12-16T22:22:43.624Z,17.27
2022-12-16T22:25:29.509Z,17.98
2022-12-16T22:28:14.730Z,16.60
2022-12-16T22:31:00.348Z,16.95
2022-12-16T22:33:45.539Z,16.45
2022-12-16T22:36:32.808Z,16.73
2022-12-16T22:39:18.140Z,18.02
2022-12-16T22:42:03.333Z,17.65
2022-12-16T22:44:48.605Z,15.93
2022-12-16T22:47:33.971Z,15.40
2022-12-16T22:50:19.632Z,16.17
2022-12-16T22:53:05.290Z,16.60
2022-12-16T22:55:50.749Z,17.02
2022-12-16T22:58:36.262Z,15.90
2022-12-16T23:01:43.019Z,16.27
2022-12-16T23:04:28.409Z,17.10
2022-12-16T23:07:13.821Z,17.08
2022-12-16T23:09:59.087Z,17.00
2022-12-16T23:12:44.445Z,17.17
2022-12-16T23:15:30.906Z,16.10
2022-12-16T23:18:16.619Z,17.15
2022-12-16T23:21:09.802Z,18.38
2022-12-16T23:23:56.760Z,16.90
2022-12-16T23:26:43.026Z,16.17
2022-12-16T23:29:28.565Z,15.80
2022-12-16T23:32:14.184Z,16.17
2022-12-16T23:34:59.555Z,16.58
2022-12-16T23:37:45.025Z,17.45
2022-12-16T23:40:30.619Z,15.75
2022-12-16T23:43:16.154Z,17.80
2022-12-16T23:46:02.677Z,16.50
2022-12-16T23:48:48.387Z,16.02
2022-12-16T23:51:34.263Z,18.05
2022-12-16T23:54:19.659Z,16.70
2022-12-16T23:57:05.204Z,17.83
2022-12-16T23:59:50.749Z,16.25
